createdAt,value
2018-10-09T00:02:09.234Z,99.90
2018-10-09T00:04:37.443Z,99.90
2018-10-09T00:07:05.733Z,99.90
2018-10-09T00:09:33.913Z,99.90
2018-10-09T00:12:02.139Z,99.90
2018-10-09T00:14:30.324Z,99.90
2018-10-09T00:16:58.520Z,99.90
2018-10-09T00:19:26.730Z,99.90
2018-10-09T00:21:54.966Z,99.90
2018-10-09T00:24:23.168Z,99.90
2018-10-09T00:26:51.386Z,99.90
2018-10-09T00:29:19.577Z,99.90
2018-10-09T00:31:47.806Z,99.90
2018-10-09T00:34:16.009Z,99.90
2018-10-09T00:36:44.209Z,99.90
2018-10-09T00:39:12.409Z,99.90
2018-10-09T00:41:40.608Z,99.90
2018-10-09T00:44:08.860Z,99.90
2018-10-09T00:46:37.076Z,99.90
2018-10-09T00:49:05.380Z,99.90
2018-10-09T00:51:33.541Z,99.90
2018-10-09T00:54:01.755Z,99.90
2018-10-09T00:56:29.950Z,99.90
2018-10-09T00:58:58.140Z,99.90
2018-10-09T01:01:26.374Z,99.90
2018-10-09T01:03:54.597Z,99.90
2018-10-09T01:06:22.773Z,99.90
2018-10-09T01:08:51.001Z,99.90
2018-10-09T01:11:19.180Z,99.90
2018-10-09T01:13:47.381Z,99.90
2018-10-09T01:16:15.568Z,99.90
2018-10-09T01:18:43.768Z,99.90
2018-10-09T01:21:11.947Z,99.90
2018-10-09T01:23:40.123Z,99.90
2018-10-09T01:26:08.493Z,99.90
2018-10-09T01:28:36.675Z,99.90
2018-10-09T01:31:04.910Z,99.90
2018-10-09T01:33:33.101Z,99.90
2018-10-09T01:36:01.305Z,99.90
2018-10-09T01:38:29.488Z,99.90
2018-10-09T01:40:57.716Z,99.90
2018-10-09T01:43:25.899Z,99.90
2018-10-09T01:45:54.098Z,99.90
2018-10-09T01:48:22.269Z,99.90
2018-10-09T01:50:50.449Z,99.90
2018-10-09T01:53:18.650Z,99.90
2018-10-09T01:55:46.885Z,99.90
2018-10-09T01:58:15.066Z,99.90
2018-10-09T02:00:43.261Z,99.90
2018-10-09T02:03:11.460Z,99.90
2018-10-09T02:05:39.687Z,99.90
2018-10-09T02:08:07.966Z,99.90
2018-10-09T02:10:36.224Z,99.90
2018-10-09T02:13:04.481Z,99.90
2018-10-09T02:15:32.655Z,99.90
2018-10-09T02:18:00.963Z,99.90
2018-10-09T02:20:29.144Z,99.90
2018-10-09T02:22:57.356Z,99.90
2018-10-09T02:25:25.599Z,99.90
2018-10-09T02:27:53.797Z,99.90
2018-10-09T02:30:21.981Z,99.90
2018-10-09T02:32:50.180Z,99.90
2018-10-09T02:35:18.404Z,99.90
2018-10-09T02:37:46.625Z,99.90
2018-10-09T02:40:14.848Z,99.90
2018-10-09T02:42:43.062Z,99.90
2018-10-09T02:45:11.279Z,99.90
2018-10-09T02:47:39.471Z,99.90
2018-10-09T02:50:07.677Z,99.90
2018-10-09T02:52:36.002Z,99.90
2018-10-09T02:55:04.354Z,99.90
2018-10-09T02:57:32.568Z,99.90
2018-10-09T03:00:00.821Z,99.90
2018-10-09T03:02:29.007Z,99.90
2018-10-09T03:04:57.233Z,99.90
2018-10-09T03:07:25.448Z,99.90
2018-10-09T03:09:53.691Z,99.90
2018-10-09T03:12:21.884Z,99.90
2018-10-09T03:14:50.065Z,99.90
2018-10-09T03:17:18.254Z,99.90
2018-10-09T03:19:46.592Z,99.90
2018-10-09T03:22:14.772Z,99.90
2018-10-09T03:24:42.959Z,99.90
2018-10-09T03:27:11.164Z,99.90
2018-10-09T03:29:39.380Z,99.90
2018-10-09T03:32:07.650Z,99.90
2018-10-09T03:34:35.918Z,99.90
2018-10-09T03:37:04.172Z,99.90
2018-10-09T03:39:32.360Z,99.90
2018-10-09T03:42:00.565Z,99.90
2018-10-09T03:44:28.753Z,99.90
2018-10-09T03:46:56.943Z,99.90
2018-10-09T03:49:25.169Z,99.90
2018-10-09T03:51:53.389Z,99.90
2018-10-09T03:54:21.576Z,99.90
2018-10-09T03:56:49.764Z,99.90
2018-10-09T03:59:18.041Z,99.90
2018-10-09T04:01:47.302Z,99.90
2018-10-09T04:04:15.479Z,99.90
2018-10-09T04:06:43.668Z,99.90
2018-10-09T04:09:13.488Z,99.90
2018-10-09T04:11:42.053Z,99.90
2018-10-09T04:14:10.271Z,99.90
2018-10-09T04:16:38.441Z,99.90
2018-10-09T04:19:06.678Z,99.90
2018-10-09T04:21:34.860Z,99.90
2018-10-09T04:24:03.068Z,99.90
2018-10-09T04:26:31.305Z,99.90
2018-10-09T04:28:59.500Z,99.90
2018-10-09T04:31:27.731Z,99.90
2018-10-09T04:33:55.944Z,99.90
2018-10-09T04:36:24.253Z,99.90
2018-10-09T04:38:52.467Z,99.90
2018-10-09T04:41:20.685Z,99.90
2018-10-09T04:43:48.933Z,99.90
2018-10-09T04:46:17.129Z,99.90
2018-10-09T04:48:45.330Z,99.90
2018-10-09T04:51:13.549Z,99.90
2018-10-09T04:53:41.709Z,99.90
2018-10-09T04:56:09.930Z,99.90
2018-10-09T04:58:38.137Z,99.90
2018-10-09T05:01:06.338Z,99.90
2018-10-09T05:03:34.638Z,99.90
2018-10-09T05:06:02.924Z,99.90
2018-10-09T05:08:31.124Z,99.90
2018-10-09T05:10:59.324Z,99.90
2018-10-09T05:13:27.538Z,99.90
2018-10-09T05:15:55.700Z,99.90
2018-10-09T05:18:23.885Z,99.90
2018-10-09T05:20:52.096Z,99.90
2018-10-09T05:23:20.357Z,99.90
2018-10-09T05:25:48.561Z,99.90
2018-10-09T05:28:16.780Z,99.90
2018-10-09T05:30:44.994Z,99.90
2018-10-09T05:33:13.185Z,99.90
2018-10-09T05:35:41.383Z,99.90
2018-10-09T05:38:09.682Z,99.90
2018-10-09T05:40:37.871Z,99.90
2018-10-09T05:43:06.383Z,99.90
2018-10-09T05:45:38.671Z,99.90
2018-10-09T05:48:07.245Z,99.90
2018-10-09T05:50:35.421Z,99.90
2018-10-09T05:53:03.583Z,99.90
2018-10-09T05:55:31.747Z,99.90
2018-10-09T05:57:59.960Z,99.90
2018-10-09T06:00:28.070Z,99.90
2018-10-09T06:02:56.312Z,99.90
2018-10-09T06:05:24.487Z,99.90
2018-10-09T06:07:52.668Z,99.90
2018-10-09T06:10:20.832Z,99.90
2018-10-09T06:12:49.035Z,99.90
2018-10-09T06:15:17.345Z,99.90
2018-10-09T06:17:45.511Z,99.90
2018-10-09T06:20:13.661Z,99.90
2018-10-09T06:22:41.931Z,99.90
2018-10-09T06:25:10.104Z,99.90
2018-10-09T06:27:38.280Z,99.90
2018-10-09T06:30:11.759Z,99.90
2018-10-09T06:32:46.441Z,99.90
2018-10-09T06:35:15.638Z,99.90
2018-10-09T06:37:43.820Z,99.90
2018-10-09T06:40:12.037Z,99.90
2018-10-09T06:42:40.319Z,99.90
2018-10-09T06:45:08.440Z,99.90
2018-10-09T06:47:37.365Z,99.90
2018-10-09T06:50:05.432Z,99.90
2018-10-09T06:52:33.627Z,99.90
2018-10-09T06:55:01.817Z,99.90
2018-10-09T06:57:29.992Z,99.90
2018-10-09T06:59:58.203Z,99.90
2018-10-09T07:02:26.387Z,99.90
2018-10-09T07:04:54.557Z,99.90
2018-10-09T07:07:22.746Z,99.90
2018-10-09T07:09:50.942Z,99.90
2018-10-09T07:12:19.117Z,99.90
2018-10-09T07:14:47.296Z,99.90
2018-10-09T07:17:15.505Z,99.90
2018-10-09T07:19:43.679Z,99.90
2018-10-09T07:22:11.869Z,99.90
2018-10-09T07:24:40.080Z,99.90
2018-10-09T07:27:08.285Z,99.90
2018-10-09T07:29:36.464Z,99.90
2018-10-09T07:32:04.677Z,99.90
2018-10-09T07:34:32.855Z,99.90
2018-10-09T07:37:01.114Z,99.90
2018-10-09T07:39:29.269Z,99.90
2018-10-09T07:41:57.441Z,99.90
2018-10-09T07:44:25.719Z,99.90
2018-10-09T07:46:53.801Z,99.90
2018-10-09T07:49:22.525Z,99.90
2018-10-09T07:51:50.693Z,99.90
2018-10-09T07:54:18.881Z,99.90
2018-10-09T07:56:47.084Z,99.90
2018-10-09T07:59:15.271Z,99.90
2018-10-09T08:01:43.498Z,99.90
2018-10-09T08:04:11.737Z,99.90
2018-10-09T08:06:39.945Z,99.90
2018-10-09T08:09:09.332Z,99.90
2018-10-09T08:11:37.505Z,99.90
2018-10-09T08:14:06.289Z,99.90
2018-10-09T08:16:34.461Z,99.90
2018-10-09T08:19:03.152Z,99.90
2018-10-09T08:21:31.372Z,99.90
2018-10-09T08:23:59.536Z,99.90
2018-10-09T08:26:27.813Z,99.90
2018-10-09T08:28:55.976Z,99.90
2018-10-09T08:31:24.179Z,99.90
2018-10-09T08:33:52.376Z,99.90
2018-10-09T08:36:20.577Z,99.90
2018-10-09T08:38:48.752Z,99.20
2018-10-09T08:41:16.976Z,98.20
2018-10-09T08:43:45.144Z,96.80
2018-10-09T08:46:13.383Z,93.40
2018-10-09T08:48:42.131Z,90.30
2018-10-09T08:51:11.151Z,84.70
2018-10-09T08:53:39.383Z,83.60
2018-10-09T08:58:35.628Z,74.90
2018-10-09T09:01:03.870Z,72.70
2018-10-09T09:03:32.075Z,72.10
2018-10-09T09:06:00.200Z,73.80
2018-10-09T09:08:30.328Z,75.10
2018-10-09T09:10:58.592Z,75.40
2018-10-09T09:13:26.768Z,75.90
2018-10-09T09:15:54.962Z,75.50
2018-10-09T09:18:23.194Z,76.00
2018-10-09T09:20:51.480Z,74.70
2018-10-09T09:23:19.657Z,71.70
2018-10-09T09:25:47.920Z,66.70
2018-10-09T09:28:16.119Z,63.70
2018-10-09T09:30:44.320Z,61.30
2018-10-09T09:33:12.553Z,55.40
2018-10-09T09:35:40.749Z,56.00
2018-10-09T09:38:08.975Z,57.70
2018-10-09T09:40:37.188Z,59.50
2018-10-09T09:43:05.894Z,59.30
2018-10-09T09:45:34.109Z,58.90
2018-10-09T09:48:02.317Z,59.50
2018-10-09T09:50:30.551Z,58.00
2018-10-09T09:52:58.745Z,55.40
2018-10-09T09:55:26.929Z,57.70
2018-10-09T09:57:55.207Z,58.10
2018-10-09T10:00:28.564Z,59.90
2018-10-09T10:05:24.793Z,68.20
2018-10-09T10:10:21.097Z,73.80
2018-10-09T10:12:49.293Z,76.00
2018-10-09T10:15:17.489Z,78.10
2018-10-09T10:17:45.681Z,79.10
2018-10-09T10:20:13.868Z,77.00
2018-10-09T10:22:42.076Z,76.20
2018-10-09T10:25:10.262Z,73.30
2018-10-09T10:27:38.432Z,72.90
2018-10-09T10:32:34.548Z,67.00
2018-10-09T10:35:02.730Z,66.60
2018-10-09T10:37:30.921Z,63.90
2018-10-09T10:39:59.118Z,64.10
2018-10-09T10:42:27.292Z,59.90
2018-10-09T10:44:55.494Z,59.70
2018-10-09T10:47:23.673Z,60.00
2018-10-09T10:49:51.840Z,59.60
2018-10-09T10:52:20.066Z,60.00
2018-10-09T10:54:48.251Z,62.60
2018-10-09T10:57:16.399Z,60.20
2018-10-09T10:59:44.569Z,59.00
2018-10-09T11:02:12.729Z,62.80
2018-10-09T11:04:40.920Z,65.70
2018-10-09T11:07:09.095Z,66.40
2018-10-09T11:09:37.244Z,70.40
2018-10-09T11:12:05.548Z,69.20
2018-10-09T11:14:33.743Z,70.90
2018-10-09T11:19:29.971Z,75.10
2018-10-09T11:21:58.165Z,77.80
2018-10-09T11:24:26.337Z,81.40
2018-10-09T11:26:54.517Z,79.60
2018-10-09T11:29:22.676Z,82.80
2018-10-09T11:31:50.837Z,84.30
2018-10-09T11:34:19.045Z,83.80
2018-10-09T11:36:47.232Z,85.00
2018-10-09T11:39:15.430Z,84.90
2018-10-09T11:41:43.685Z,83.90
2018-10-09T11:44:11.897Z,84.10
2018-10-09T11:46:40.069Z,81.80
2018-10-09T11:49:08.279Z,78.70
2018-10-09T11:51:36.704Z,78.70
2018-10-09T11:54:05.052Z,77.50
2018-10-09T11:56:33.261Z,77.00
2018-10-09T11:59:01.568Z,75.70
2018-10-09T12:01:29.674Z,73.40
2018-10-09T12:03:57.913Z,72.40
2018-10-09T12:06:26.094Z,74.40
2018-10-09T12:08:54.295Z,75.80
2018-10-09T12:11:22.503Z,73.60
2018-10-09T12:13:50.844Z,71.40
2018-10-09T12:16:19.121Z,72.10
2018-10-09T12:18:47.316Z,72.40
2018-10-09T12:21:15.609Z,73.50
2018-10-09T12:23:43.789Z,75.40
2018-10-09T12:26:12.037Z,78.00
2018-10-09T12:28:40.245Z,74.60
2018-10-09T12:31:08.460Z,74.80
2018-10-09T12:33:36.679Z,74.20
2018-10-09T12:36:05.048Z,75.00
2018-10-09T12:38:33.411Z,75.30
2018-10-09T12:41:01.530Z,77.90
2018-10-09T12:43:29.785Z,79.80
2018-10-09T12:45:58.012Z,79.20
2018-10-09T12:48:26.240Z,82.00
2018-10-09T12:50:54.473Z,81.40
2018-10-09T12:53:22.717Z,83.00
2018-10-09T12:55:50.931Z,83.00
2018-10-09T13:00:57.468Z,83.40
2018-10-09T13:03:25.731Z,83.10
2018-10-09T13:05:53.994Z,82.20
2018-10-09T13:08:22.232Z,83.80
2018-10-09T13:10:50.790Z,83.50
2018-10-09T13:13:19.008Z,83.10
2018-10-09T13:15:47.200Z,82.80
2018-10-09T13:18:15.415Z,83.00
2018-10-09T13:20:43.677Z,83.10
2018-10-09T13:23:11.907Z,83.60
2018-10-09T13:25:40.153Z,82.90
2018-10-09T13:28:08.405Z,81.40
2018-10-09T13:30:36.681Z,81.60
2018-10-09T13:33:04.936Z,82.70
2018-10-09T13:35:33.827Z,83.00
2018-10-09T13:38:02.132Z,84.50
2018-10-09T13:40:30.353Z,84.60
2018-10-09T13:42:58.624Z,83.80
2018-10-09T13:45:26.818Z,84.00
2018-10-09T13:47:55.061Z,85.20
2018-10-09T13:50:23.319Z,83.30
2018-10-09T13:52:51.542Z,83.70
2018-10-09T13:55:19.827Z,85.80
2018-10-09T13:57:49.408Z,84.80
2018-10-09T14:00:17.800Z,84.40
2018-10-09T14:02:46.044Z,85.30
2018-10-09T14:05:14.233Z,87.30
2018-10-09T14:07:42.463Z,86.70
2018-10-09T14:10:10.754Z,86.60
2018-10-09T14:12:38.901Z,85.80
2018-10-09T14:15:07.457Z,86.30
2018-10-09T14:17:35.643Z,86.40
2018-10-09T14:20:03.924Z,86.50
2018-10-09T14:22:32.329Z,84.50
2018-10-09T14:25:00.430Z,86.00
2018-10-09T14:27:28.762Z,84.60
2018-10-09T14:29:56.997Z,85.10
2018-10-09T14:32:25.263Z,87.30
2018-10-09T14:34:53.564Z,87.70
2018-10-09T14:37:21.862Z,87.00
2018-10-09T14:39:50.065Z,88.10
2018-10-09T14:42:18.594Z,87.70
2018-10-09T14:44:46.795Z,87.80
2018-10-09T14:47:15.068Z,90.50
2018-10-09T14:49:44.351Z,90.20
2018-10-09T14:52:12.673Z,91.40
2018-10-09T14:54:40.894Z,90.60
2018-10-09T14:57:09.093Z,90.80
2018-10-09T14:59:37.375Z,90.90
2018-10-09T15:02:05.645Z,91.10
2018-10-09T15:04:33.944Z,91.00
2018-10-09T15:07:02.146Z,92.00
2018-10-09T15:09:30.364Z,92.90
2018-10-09T15:11:58.564Z,93.10
2018-10-09T15:14:26.839Z,92.60
2018-10-09T15:16:55.091Z,92.20
2018-10-09T15:19:23.240Z,92.90
2018-10-09T15:21:51.508Z,92.90
2018-10-09T15:24:19.716Z,93.10
2018-10-09T15:26:48.017Z,93.00
2018-10-09T15:29:16.251Z,93.30
2018-10-09T15:31:44.466Z,93.60
2018-10-09T15:34:12.729Z,94.20
2018-10-09T15:36:41.007Z,94.10
2018-10-09T15:39:10.813Z,95.00
2018-10-09T15:41:39.116Z,95.60
2018-10-09T15:44:07.351Z,96.40
2018-10-09T15:46:35.582Z,97.90
2018-10-09T15:49:03.793Z,97.70
2018-10-09T15:51:32.466Z,98.80
2018-10-09T15:54:00.786Z,99.20
2018-10-09T15:56:29.006Z,99.90
2018-10-09T15:58:57.220Z,99.90
2018-10-09T16:01:25.503Z,99.90
2018-10-09T16:03:53.839Z,99.90
2018-10-09T16:06:22.041Z,99.90
2018-10-09T16:08:50.396Z,99.90
2018-10-09T16:11:18.625Z,99.90
2018-10-09T16:13:46.859Z,99.90
2018-10-09T16:16:15.142Z,99.90
2018-10-09T16:18:43.397Z,99.90
2018-10-09T16:21:11.714Z,99.90
2018-10-09T16:23:39.949Z,99.90
2018-10-09T16:26:08.189Z,99.90
2018-10-09T16:28:36.410Z,99.90
2018-10-09T16:31:04.654Z,99.90
2018-10-09T16:33:32.871Z,99.90
2018-10-09T16:36:01.092Z,99.90
2018-10-09T16:38:29.838Z,99.90
2018-10-09T16:40:58.041Z,99.90
2018-10-09T16:43:26.253Z,99.90
2018-10-09T16:45:54.565Z,99.90
2018-10-09T16:48:22.816Z,99.90
2018-10-09T16:50:51.030Z,99.90
2018-10-09T16:53:19.313Z,99.90
2018-10-09T16:55:47.517Z,99.90
2018-10-09T16:58:15.751Z,99.90
2018-10-09T17:00:44.297Z,99.90
2018-10-09T17:03:12.594Z,99.90
2018-10-09T17:05:40.873Z,99.90
2018-10-09T17:08:09.137Z,99.90
2018-10-09T17:10:37.453Z,99.90
2018-10-09T17:13:05.918Z,99.90
2018-10-09T17:15:34.219Z,99.90
2018-10-09T17:18:02.433Z,99.90
2018-10-09T17:20:30.932Z,99.90
2018-10-09T17:22:59.169Z,99.90
2018-10-09T17:25:27.400Z,99.90
2018-10-09T17:27:56.406Z,99.90
2018-10-09T17:30:24.700Z,99.90
2018-10-09T17:32:52.936Z,99.90
2018-10-09T17:35:21.283Z,99.90
2018-10-09T17:37:49.460Z,99.90
2018-10-09T17:40:17.689Z,99.90
2018-10-09T17:42:45.961Z,99.90
2018-10-09T17:45:14.216Z,99.90
2018-10-09T17:47:42.458Z,99.90
2018-10-09T17:50:10.676Z,99.90
2018-10-09T17:52:38.927Z,99.90
2018-10-09T17:55:07.280Z,99.90
2018-10-09T17:57:35.720Z,99.90
2018-10-09T18:00:03.992Z,99.90
2018-10-09T18:02:32.195Z,99.90
2018-10-09T18:05:00.632Z,99.90
2018-10-09T18:07:28.810Z,99.90
2018-10-09T18:09:57.041Z,99.90
2018-10-09T18:12:25.273Z,99.90
2018-10-09T18:14:53.573Z,99.90
2018-10-09T18:17:21.716Z,99.90
2018-10-09T18:19:49.968Z,99.90
2018-10-09T18:22:18.191Z,99.90
2018-10-09T18:24:46.447Z,99.90
2018-10-09T18:27:14.682Z,99.90
2018-10-09T18:29:43.077Z,99.90
2018-10-09T18:32:11.294Z,99.90
2018-10-09T18:34:39.514Z,99.90
2018-10-09T18:37:07.750Z,99.90
2018-10-09T18:39:36.024Z,99.90
2018-10-09T18:42:04.337Z,99.90
2018-10-09T18:44:32.572Z,99.90
2018-10-09T18:47:01.028Z,99.90
2018-10-09T18:49:29.274Z,99.90
2018-10-09T18:51:57.473Z,99.90
2018-10-09T18:54:25.693Z,99.90
2018-10-09T18:56:53.915Z,99.90
2018-10-09T18:59:22.161Z,99.90
2018-10-09T19:01:50.369Z,99.90
2018-10-09T19:04:18.621Z,99.90
2018-10-09T19:06:46.952Z,99.90
2018-10-09T19:09:15.202Z,99.90
2018-10-09T19:11:43.393Z,99.90
2018-10-09T19:14:11.672Z,99.90
2018-10-09T19:16:39.891Z,99.90
2018-10-09T19:19:08.137Z,99.90
2018-10-09T19:21:36.366Z,99.90
2018-10-09T19:24:04.685Z,99.90
2018-10-09T19:26:32.925Z,99.90
2018-10-09T19:29:01.203Z,99.90
2018-10-09T19:31:29.450Z,99.90
2018-10-09T19:33:57.663Z,99.90
2018-10-09T19:36:25.925Z,99.90
2018-10-09T19:38:54.172Z,99.90
2018-10-09T19:41:22.512Z,99.90
2018-10-09T19:43:50.785Z,99.90
2018-10-09T19:46:19.019Z,99.90
2018-10-09T19:48:47.300Z,99.90
2018-10-09T19:51:15.604Z,99.90
2018-10-09T19:53:44.326Z,99.90
2018-10-09T19:56:12.558Z,99.90
2018-10-09T19:58:40.827Z,99.90
2018-10-09T20:01:09.231Z,99.90
2018-10-09T20:03:37.384Z,99.90
2018-10-09T20:06:05.622Z,99.90
2018-10-09T20:08:34.131Z,99.90
2018-10-09T20:11:02.364Z,99.90
2018-10-09T20:13:30.654Z,99.90
2018-10-09T20:15:58.911Z,99.90
2018-10-09T20:18:27.182Z,99.90
2018-10-09T20:20:55.562Z,99.90
2018-10-09T20:23:23.759Z,99.90
2018-10-09T20:25:51.983Z,99.90
2018-10-09T20:28:20.227Z,99.90
2018-10-09T20:30:48.444Z,99.90
2018-10-09T20:33:16.729Z,99.90
2018-10-09T20:35:51.508Z,99.90
2018-10-09T20:38:19.829Z,99.90
2018-10-09T20:40:48.156Z,99.90
2018-10-09T20:43:16.389Z,99.90
2018-10-09T20:45:44.657Z,99.90
2018-10-09T20:48:12.920Z,99.90
2018-10-09T20:50:41.194Z,99.90
2018-10-09T20:53:09.469Z,99.90
2018-10-09T20:55:37.681Z,99.90
2018-10-09T20:58:06.017Z,99.90
2018-10-09T21:00:34.343Z,99.90
2018-10-09T21:03:02.635Z,99.90
2018-10-09T21:05:31.027Z,99.90
2018-10-09T21:07:59.239Z,99.90
2018-10-09T21:10:27.536Z,99.90
2018-10-09T21:12:55.821Z,99.90
2018-10-09T21:15:24.026Z,99.90
2018-10-09T21:17:52.313Z,99.90
2018-10-09T21:20:20.574Z,99.90
2018-10-09T21:22:48.788Z,99.90
2018-10-09T21:25:17.029Z,99.90
2018-10-09T21:27:45.272Z,99.90
2018-10-09T21:30:13.517Z,99.90
2018-10-09T21:32:41.774Z,99.90
2018-10-09T21:35:10.037Z,99.90
2018-10-09T21:37:38.257Z,99.90
2018-10-09T21:40:07.235Z,99.90
2018-10-09T21:42:42.103Z,99.90
2018-10-09T21:45:10.365Z,99.90
2018-10-09T21:47:42.809Z,99.90
2018-10-09T21:50:11.075Z,99.90
2018-10-09T21:52:39.317Z,99.90
2018-10-09T21:55:07.545Z,99.90
2018-10-09T21:57:35.777Z,99.90
2018-10-09T22:00:04.065Z,99.90
2018-10-09T22:02:32.312Z,99.90
2018-10-09T22:05:00.542Z,99.90
2018-10-09T22:07:28.785Z,99.90
2018-10-09T22:09:57.008Z,99.90
2018-10-09T22:12:25.243Z,99.90
2018-10-09T22:14:53.472Z,99.90
2018-10-09T22:17:21.702Z,99.90
2018-10-09T22:19:50.627Z,99.90
2018-10-09T22:22:18.871Z,99.90
2018-10-09T22:24:47.075Z,99.90
2018-10-09T22:27:15.336Z,99.90
2018-10-09T22:29:43.601Z,99.90
2018-10-09T22:32:11.877Z,99.90
2018-10-09T22:34:40.823Z,99.90
2018-10-09T22:37:09.047Z,99.90
2018-10-09T22:39:37.285Z,99.90
2018-10-09T22:42:05.556Z,99.90
2018-10-09T22:44:33.832Z,99.90
2018-10-09T22:47:02.050Z,99.90
2018-10-09T22:49:30.321Z,99.90
2018-10-09T22:51:58.545Z,99.90
2018-10-09T22:54:26.786Z,99.90
2018-10-09T22:56:55.341Z,99.90
2018-10-09T22:59:23.712Z,99.90
2018-10-09T23:01:51.906Z,99.90
2018-10-09T23:04:20.184Z,99.90
2018-10-09T23:06:48.500Z,99.90
2018-10-09T23:09:16.746Z,99.90
2018-10-09T23:11:44.994Z,99.90
2018-10-09T23:14:14.886Z,99.90
2018-10-09T23:16:43.100Z,99.90
2018-10-09T23:19:11.325Z,99.90
2018-10-09T23:21:39.540Z,99.90
2018-10-09T23:24:07.775Z,99.90
2018-10-09T23:26:35.985Z,99.90
2018-10-09T23:29:04.225Z,99.90
2018-10-09T23:31:32.463Z,99.90
2018-10-09T23:34:00.719Z,99.90
2018-10-09T23:36:28.987Z,99.90
2018-10-09T23:38:57.180Z,99.90
2018-10-09T23:41:25.397Z,99.90
2018-10-09T23:43:53.611Z,99.90
2018-10-09T23:46:21.819Z,99.90
2018-10-09T23:48:50.096Z,99.90
2018-10-09T23:51:18.466Z,99.90
2018-10-09T23:53:46.681Z,99.90
2018-10-09T23:56:14.930Z,99.90
2018-10-09T23:58:43.133Z,99.90
